Oxnard Airport
KOXR : now visible

Airfield :











YOU CAN JOIN US ON...

 
LOGIN :

Register | Disclaimer

   EN    FR    IT 

 









Legend :    VFR   Marginal VFR   IFR   Intensive IFR   Very Intensive IFR
Visi :
Ceiling :
>= 8 km
>= 3000ft
5 to 8 km
1000 to 3000 ft
1500m to 5 km
500 to 1000 ft
800 to 1500m
200 to 500 ft
< 800m
< 200 ft
Symbols :   Thunderstorms  Fog  Heavy snow  Heavy precipitations  Wind > 20 kt







- Airport Elevation : 45 ft


KOXR - Oxnard

CURRENT METAR :
  • 181051Z AUTO 05003KT 10SM CLR 16/11 A2987 RMK AO2 SLP114 T01610111

EXPIRED METARs :
  • 180951Z AUTO 10003KT 10SM CLR 17/12 A2988 RMK AO2 SLP117 T01720117
  • 180851Z AUTO 05003KT 10SM CLR 17/12 A2989 RMK AO2 SLP119 T01720122 55002

TAF KOXR
Valid from the 18 at 06:00 until the 19 at 06:00 UTC


180520Z 1806/1906 VRB03KT P6SM SKC
FM181200 VRB03KT 6SM HZ BKN010
FM181600 29005KT P6SM SCT014
FM182000 25008KT P6SM SKC
FM190300 27005KT P6SM BKN009
No reported NOTAMs for that airfield.



MET'MAP, your aeronautical weather chart ! - Copyright ORBIFLY December 2007 - Disclaimer

ORBIFLY MET'MAP TEAM :

Programming & Development : Alexandra Zaïnal
Concept & Development : Baudouin d'Aumeries
Co-Development & Prog : Marc-Olivier Méhu
Technical & hardware support : Manuel Goepfert

Contact : metmap@orbifly.com




SOURCES & CREDITS :

   NOAA       Earth
Advisory